Time;durP1;ratioP1;P1;durP2;ratioP2;P2;SDS_P1;SDS_P2;PMS_P1;PMS_P2;Temp;Humidity;BMP_temperature;BMP_pressure;BME280_temperature;BME280_humidity;BME280_pressure;Samples;Min_cycle;Max_cycle;Signal;HPM_P1;HPM_P2
2024/03/22 00:01:04;;;;;;;39.10;35.10;;;;;;;11.56;69.52;100720.64;111286;1251;21952;-74
2024/03/22 00:03:42;;;;;;;41.50;37.10;;;;;;;11.53;69.66;100726.65;111284;1253;21966;-74
2024/03/22 00:06:11;;;;;;;40.80;36.70;;;;;;;11.51;69.25;100727.98;111220;1253;22912;-75
2024/03/22 00:08:40;;;;;;;39.50;35.50;;;;;;;11.50;69.29;100729.61;111193;1253;23673;-75
2024/03/22 00:11:09;;;;;;;38.80;34.80;;;;;;;11.47;69.43;100733.36;111210;1253;21965;-75
2024/03/22 00:13:37;;;;;;;38.90;35.10;;;;;;;11.42;69.82;100732.59;111109;1253;22938;-74
2024/03/22 00:16:06;;;;;;;36.50;33.10;;;;;;;11.42;69.73;100731.92;111313;1253;22019;-73
2024/03/22 00:18:35;;;;;;;35.70;31.90;;;;;;;11.41;69.90;100728.69;111192;1253;21977;-74
2024/03/22 00:21:04;;;;;;;38.10;34.00;;;;;;;11.39;69.85;100720.84;111319;1253;22733;-75
2024/03/22 00:23:34;;;;;;;37.30;33.60;;;;;;;11.39;69.52;100720.66;111342;1253;21956;-74
2024/03/22 00:26:03;;;;;;;35.50;32.00;;;;;;;11.40;69.50;100713.55;111241;1253;22726;-74
2024/03/22 00:28:31;;;;;;;34.50;31.10;;;;;;;11.39;69.68;100712.36;111289;1253;22158;-74
2024/03/22 00:31:00;;;;;;;34.70;31.30;;;;;;;11.38;69.60;100714.05;111322;1253;21955;-75
2024/03/22 00:33:29;;;;;;;33.70;30.30;;;;;;;11.33;69.93;100710.85;111239;1253;22016;-74
2024/03/22 00:35:58;;;;;;;34.50;31.20;;;;;;;11.30;69.82;100711.98;111272;1253;23746;-74
2024/03/22 00:38:27;;;;;;;35.90;32.40;;;;;;;11.28;69.73;100712.63;111336;1253;22041;-74
2024/03/22 00:40:56;;;;;;;32.60;29.40;;;;;;;11.26;69.91;100710.60;111259;1253;23044;-73
2024/03/22 00:43:25;;;;;;;32.80;29.60;;;;;;;11.25;69.75;100709.14;111360;1253;21968;-74
2024/03/22 00:45:53;;;;;;;33.70;30.20;;;;;;;11.23;69.87;100706.63;111288;1253;21965;-74
2024/03/22 00:48:22;;;;;;;31.80;28.70;;;;;;;11.22;69.71;100707.36;111301;1253;23620;-74
2024/03/22 00:50:51;;;;;;;31.60;28.50;;;;;;;11.21;69.84;100703.54;111376;1253;23637;-75
2024/03/22 00:53:20;;;;;;;30.70;27.80;;;;;;;11.21;70.08;100703.73;111353;1253;23704;-74
2024/03/22 00:55:51;;;;;;;31.30;28.10;;;;;;;11.19;69.84;100704.55;111396;1253;23773;-75
2024/03/22 00:58:20;;;;;;;30.60;27.50;;;;;;;11.19;69.85;100704.91;111269;1253;21964;-76
2024/03/22 01:00:48;;;;;;;28.50;25.70;;;;;;;11.19;69.87;100700.73;111340;1253;23601;-76
2024/03/22 01:03:17;;;;;;;28.40;25.30;;;;;;;11.19;69.66;100697.90;111347;1253;22405;-75
2024/03/22 01:05:46;;;;;;;29.00;26.00;;;;;;;11.19;69.55;100694.52;111272;1253;23797;-76
2024/03/22 01:08:15;;;;;;;27.50;24.80;;;;;;;11.18;69.72;100694.39;111232;1253;22429;-76
2024/03/22 01:10:44;;;;;;;30.80;26.20;;;;;;;11.19;69.91;100690.50;111250;1253;23090;-76
2024/03/22 01:13:12;;;;;;;24.70;22.10;;;;;;;11.20;69.67;100691.46;111332;1253;21948;-77
2024/03/22 01:15:41;;;;;;;25.60;23.00;;;;;;;11.20;69.57;100693.23;111297;1253;21964;-74
2024/03/22 01:18:10;;;;;;;23.90;21.60;;;;;;;11.19;69.22;100693.63;111291;1253;23057;-74
2024/03/22 01:20:39;;;;;;;25.50;22.90;;;;;;;11.18;69.24;100692.30;111328;1253;21960;-76
2024/03/22 01:23:08;;;;;;;24.20;21.20;;;;;;;11.18;69.23;100689.52;111341;1253;21962;-75
2024/03/22 01:25:36;;;;;;;24.50;21.40;;;;;;;11.16;69.40;100690.33;111342;1253;22736;-75
2024/03/22 01:28:05;;;;;;;24.20;21.00;;;;;;;11.15;69.60;100686.90;111228;1253;21956;-74
2024/03/22 01:30:36;;;;;;;22.60;20.40;;;;;;;11.12;69.58;100685.14;111320;1253;22732;-75
2024/03/22 01:33:05;;;;;;;23.30;20.80;;;;;;;11.10;69.77;100686.16;111360;1253;22415;-74
2024/03/22 01:35:34;;;;;;;20.40;18.50;;;;;;;11.11;69.58;100681.70;111317;1253;23059;-75
2024/03/22 01:38:03;;;;;;;21.60;19.50;;;;;;;11.09;69.91;100683.40;111287;1253;23062;-75
2024/03/22 01:40:32;;;;;;;21.40;19.30;;;;;;;11.09;69.78;100679.19;111361;1253;21952;-74
2024/03/22 01:43:01;;;;;;;20.10;18.20;;;;;;;11.10;69.79;100677.38;111346;1253;22026;-74
2024/03/22 01:45:33;;;;;;;21.10;18.90;;;;;;;11.09;69.72;100679.67;111352;1253;23345;-76
2024/03/22 01:48:03;;;;;;;21.60;19.30;;;;;;;11.08;69.87;100675.55;111351;1253;23593;-75
2024/03/22 01:50:32;;;;;;;22.50;20.50;;;;;;;11.07;69.77;100677.20;111237;1253;23582;-74
2024/03/22 01:53:01;;;;;;;20.50;18.40;;;;;;;11.08;69.78;100678.02;111349;1251;21952;-75
2024/03/22 01:55:30;;;;;;;21.20;19.10;;;;;;;11.09;69.94;100675.13;111277;1253;22036;-76
2024/03/22 01:57:59;;;;;;;21.30;19.10;;;;;;;11.09;69.84;100676.57;111327;1253;21961;-74
2024/03/22 02:00:28;;;;;;;19.60;17.70;;;;;;;11.09;69.74;100679.87;111244;1253;23683;-75
2024/03/22 02:02:57;;;;;;;20.80;18.60;;;;;;;11.07;69.85;100682.15;111334;1253;22016;-74
2024/03/22 02:05:26;;;;;;;22.40;19.90;;;;;;;11.04;69.84;100677.56;111287;1251;21960;-74
2024/03/22 02:07:55;;;;;;;19.90;17.90;;;;;;;11.02;69.84;100679.83;111257;1253;21980;-76
2024/03/22 02:10:24;;;;;;;23.00;19.40;;;;;;;10.99;69.82;100679.46;111257;1253;23614;-75
2024/03/22 02:12:52;;;;;;;21.90;19.70;;;;;;;10.97;69.94;100676.45;111138;1253;22482;-74
2024/03/22 02:15:21;;;;;;;23.50;21.10;;;;;;;10.95;70.25;100678.35;111478;1253;21968;-75
2024/03/22 02:17:50;;;;;;;22.90;20.20;;;;;;;10.92;70.42;100678.02;111866;1253;21978;-76
2024/03/22 02:20:19;;;;;;;20.80;18.90;;;;;;;10.89;70.74;100674.98;111506;1253;23062;-75
2024/03/22 02:22:47;;;;;;;20.70;18.80;;;;;;;10.88;70.68;100676.52;111406;1253;22031;-75
2024/03/22 02:25:16;;;;;;;21.60;19.50;;;;;;;10.85;71.16;100678.82;111318;1253;21949;-76
2024/03/22 02:27:45;;;;;;;20.20;18.20;;;;;;;10.82;70.93;100678.10;111325;1253;21977;-74
2024/03/22 02:30:14;;;;;;;20.10;18.40;;;;;;;10.80;70.95;100674.40;111307;1253;21910;-73
2024/03/22 02:32:42;;;;;;;19.90;18.20;;;;;;;10.76;70.91;100669.58;111318;1253;21959;-73
2024/03/22 02:35:11;;;;;;;19.60;17.80;;;;;;;10.73;71.22;100668.20;111275;1253;22094;-73
2024/03/22 02:37:40;;;;;;;19.60;17.80;;;;;;;10.69;70.89;100669.66;111086;1253;22625;-73
2024/03/22 02:40:10;;;;;;;19.50;17.80;;;;;;;10.67;71.03;100666.83;111180;1243;22351;-73
2024/03/22 02:42:39;;;;;;;20.30;18.40;;;;;;;10.65;71.27;100669.55;111374;1253;21989;-75
2024/03/22 02:45:08;;;;;;;20.00;18.10;;;;;;;10.64;71.23;100665.61;111247;1253;21961;-76
2024/03/22 02:47:37;;;;;;;20.90;19.00;;;;;;;10.62;71.51;100657.79;111313;1253;22482;-75
2024/03/22 02:50:07;;;;;;;21.80;19.70;;;;;;;10.60;71.32;100657.91;111169;1253;21981;-73
2024/03/22 02:52:36;;;;;;;19.20;17.40;;;;;;;10.60;71.63;100658.60;111370;1253;22060;-73
2024/03/22 02:55:05;;;;;;;21.60;19.40;;;;;;;10.62;71.75;100650.91;111245;1253;21954;-73
2024/03/22 02:57:33;;;;;;;21.80;19.60;;;;;;;10.63;71.84;100647.38;111292;1253;23687;-72
2024/03/22 03:00:03;;;;;;;21.00;19.00;;;;;;;10.61;71.72;100648.02;111288;1253;21963;-74
2024/03/22 03:02:32;;;;;;;22.70;20.50;;;;;;;10.61;71.76;100654.00;111212;1253;21987;-74
2024/03/22 03:05:01;;;;;;;21.00;19.00;;;;;;;10.60;71.72;100659.67;111257;1253;23087;-74
2024/03/22 03:07:30;;;;;;;24.90;22.60;;;;;;;10.59;71.97;100660.11;111286;1253;22970;-73
2024/03/22 03:09:59;;;;;;;26.50;24.10;;;;;;;10.59;71.85;100659.42;111277;1253;23009;-74
2024/03/22 03:12:28;;;;;;;27.70;25.10;;;;;;;10.60;72.09;100660.77;111293;1253;21950;-73
2024/03/22 03:14:57;;;;;;;29.10;26.50;;;;;;;10.63;72.18;100658.27;111296;1253;23657;-73
2024/03/22 03:17:26;;;;;;;28.20;25.60;;;;;;;10.60;72.22;100665.70;111212;1253;21955;-74
2024/03/22 03:19:54;;;;;;;25.90;23.70;;;;;;;10.55;72.30;100669.73;111276;1253;23690;-74
2024/03/22 03:22:23;;;;;;;22.50;20.50;;;;;;;10.51;72.52;100671.19;111278;1253;21985;-75
2024/03/22 03:24:52;;;;;;;17.00;15.60;;;;;;;10.44;72.30;100669.00;111305;1253;22017;-74
2024/03/22 03:27:21;;;;;;;12.90;11.70;;;;;;;10.35;72.03;100668.67;111297;1253;22104;-74
2024/03/22 03:29:50;;;;;;;12.10;11.00;;;;;;;10.25;72.18;100665.79;111150;1253;21964;-76
2024/03/22 03:32:18;;;;;;;13.20;12.00;;;;;;;10.17;72.13;100657.16;111249;1253;21963;-75
2024/03/22 03:34:47;;;;;;;13.10;11.90;;;;;;;10.10;72.21;100657.80;111339;1253;21967;-76
2024/03/22 03:37:16;;;;;;;14.00;12.70;;;;;;;10.07;72.21;100655.66;111293;1253;23615;-76
2024/03/22 03:39:45;;;;;;;12.90;11.80;;;;;;;10.00;72.36;100655.55;111356;1253;22543;-75
2024/03/22 03:42:14;;;;;;;13.60;12.40;;;;;;;9.95;72.44;100659.20;111246;1253;21955;-76
2024/03/22 03:44:42;;;;;;;14.50;13.20;;;;;;;9.89;72.56;100657.81;111169;1253;22350;-76
2024/03/22 03:47:11;;;;;;;13.90;12.70;;;;;;;9.84;72.66;100656.04;111297;1253;21959;-74
2024/03/22 03:49:40;;;;;;;14.40;12.90;;;;;;;9.79;72.77;100656.37;111268;1253;22012;-73
2024/03/22 03:52:08;;;;;;;14.70;13.40;;;;;;;9.77;72.98;100656.30;111352;1253;21962;-73
2024/03/22 03:54:37;;;;;;;14.10;12.80;;;;;;;9.75;73.06;100655.03;111339;1253;23681;-72
2024/03/22 03:57:07;;;;;;;14.60;13.10;;;;;;;9.71;73.18;100656.34;111352;1253;22090;-72
2024/03/22 03:59:36;;;;;;;14.30;13.10;;;;;;;9.66;73.35;100653.45;111305;1253;23433;-72
2024/03/22 04:02:05;;;;;;;13.20;11.90;;;;;;;9.63;73.30;100653.13;111333;1253;23584;-73
2024/03/22 04:04:33;;;;;;;13.90;12.80;;;;;;;9.60;73.10;100658.80;111367;1253;22386;-73
2024/03/22 04:07:02;;;;;;;14.40;13.20;;;;;;;9.56;73.41;100662.88;111354;1253;23497;-75
2024/03/22 04:09:31;;;;;;;16.40;15.00;;;;;;;9.51;73.52;100664.43;111305;1253;21955;-74
2024/03/22 04:12:00;;;;;;;16.70;15.00;;;;;;;9.50;73.45;100662.50;111424;1253;22401;-74
2024/03/22 04:14:29;;;;;;;16.90;15.30;;;;;;;9.47;73.57;100664.30;111098;1253;23621;-74
2024/03/22 04:16:57;;;;;;;17.40;15.90;;;;;;;9.43;73.63;100667.34;111320;1253;23158;-74
2024/03/22 04:19:26;;;;;;;17.80;16.10;;;;;;;9.41;73.84;100666.93;111309;1253;21952;-74
2024/03/22 04:21:55;;;;;;;17.20;15.70;;;;;;;9.39;73.89;100671.95;111285;1253;21969;-74
2024/03/22 04:24:24;;;;;;;18.60;16.70;;;;;;;9.35;73.95;100667.84;111243;1253;21965;-74
2024/03/22 04:26:52;;;;;;;19.50;17.60;;;;;;;9.32;73.92;100663.11;111325;1253;23146;-73
2024/03/22 04:29:21;;;;;;;22.90;20.80;;;;;;;9.30;74.02;100660.55;111331;1253;22247;-73
2024/03/22 04:31:50;;;;;;;23.00;20.90;;;;;;;9.31;73.92;100655.77;111294;1253;21974;-73
2024/03/22 04:34:19;;;;;;;20.90;19.10;;;;;;;9.31;73.96;100652.95;111327;1253;21955;-74
2024/03/22 04:36:48;;;;;;;21.00;19.10;;;;;;;9.31;73.94;100654.91;111311;1253;21961;-74
2024/03/22 04:39:17;;;;;;;19.40;17.30;;;;;;;9.31;73.81;100659.66;111319;1243;22005;-74
2024/03/22 04:41:45;;;;;;;19.00;17.30;;;;;;;9.32;73.79;100660.29;111332;1253;23592;-76
2024/03/22 04:44:14;;;;;;;17.60;16.00;;;;;;;9.33;73.94;100658.63;111237;1253;21960;-73
2024/03/22 04:46:44;;;;;;;17.50;15.90;;;;;;;9.34;73.81;100657.52;111343;1253;21964;-74
2024/03/22 04:49:12;;;;;;;19.30;17.50;;;;;;;9.35;73.69;100659.76;111322;1253;22002;-74
2024/03/22 04:51:41;;;;;;;18.30;16.60;;;;;;;9.36;73.68;100660.40;111297;1253;21953;-74
2024/03/22 04:54:10;;;;;;;17.80;16.20;;;;;;;9.36;73.54;100662.13;111305;1253;21971;-74
2024/03/22 04:56:40;;;;;;;17.50;15.90;;;;;;;9.34;73.55;100663.34;111332;1253;24297;-73
2024/03/22 04:59:08;;;;;;;18.10;16.40;;;;;;;9.32;73.61;100665.56;111317;1240;23020;-74
2024/03/22 05:01:37;;;;;;;17.90;16.20;;;;;;;9.32;73.55;100663.41;111354;1253;23708;-73
2024/03/22 05:04:06;;;;;;;18.90;17.00;;;;;;;9.34;73.60;100660.30;111313;1253;21948;-73
2024/03/22 05:06:35;;;;;;;18.40;16.10;;;;;;;9.37;73.56;100660.50;111386;1253;24229;-72
2024/03/22 05:09:03;;;;;;;18.90;17.20;;;;;;;9.38;73.71;100661.46;111528;1253;21976;-72
2024/03/22 05:11:32;;;;;;;19.60;17.60;;;;;;;9.41;73.67;100662.67;112359;1253;22667;-74
2024/03/22 05:14:01;;;;;;;18.20;16.50;;;;;;;9.46;73.65;100663.47;111694;1253;24289;-73
2024/03/22 05:16:30;;;;;;;20.50;18.60;;;;;;;9.49;73.71;100665.39;111260;1253;22515;-73
2024/03/22 05:18:59;;;;;;;21.30;19.10;;;;;;;9.49;73.60;100669.98;111408;1253;21951;-75
2024/03/22 05:21:27;;;;;;;22.10;19.90;;;;;;;9.48;73.62;100667.95;111451;1253;23707;-74
2024/03/22 05:23:56;;;;;;;21.60;19.30;;;;;;;9.49;73.82;100668.72;111407;1245;23106;-74
2024/03/22 05:26:25;;;;;;;21.70;19.50;;;;;;;9.52;73.71;100668.71;111367;1253;23569;-75
2024/03/22 05:28:54;;;;;;;23.00;20.50;;;;;;;9.53;73.51;100669.39;111494;1253;21952;-75
2024/03/22 05:31:22;;;;;;;21.80;19.70;;;;;;;9.54;73.73;100669.34;111721;1253;22744;-75
2024/03/22 05:33:51;;;;;;;22.20;19.50;;;;;;;9.57;73.73;100671.28;112479;1253;22156;-76
2024/03/22 05:36:20;;;;;;;22.60;20.50;;;;;;;9.59;73.64;100671.64;112749;1251;21976;-74
2024/03/22 05:38:49;;;;;;;23.80;21.40;;;;;;;9.63;73.68;100672.32;112982;1253;21856;-75
2024/03/22 05:41:17;;;;;;;30.60;26.10;;;;;;;9.67;73.44;100667.66;112932;1253;21989;-75
2024/03/22 05:43:46;;;;;;;30.20;27.30;;;;;;;9.68;73.37;100665.46;112745;1253;21981;-75
2024/03/22 05:46:15;;;;;;;33.30;29.90;;;;;;;9.68;73.17;100666.70;112515;1253;22701;-75
2024/03/22 05:48:44;;;;;;;33.50;29.90;;;;;;;9.70;73.00;100667.65;112140;1253;23717;-75
2024/03/22 05:51:12;;;;;;;32.20;28.70;;;;;;;9.73;73.06;100668.15;111325;1253;23602;-75
2024/03/22 05:53:42;;;;;;;32.70;29.30;;;;;;;9.77;72.93;100673.21;111267;1253;21958;-76
2024/03/22 05:56:11;;;;;;;29.70;26.80;;;;;;;9.76;72.82;100671.14;111362;1253;21953;-75
2024/03/22 05:58:40;;;;;;;32.50;29.20;;;;;;;9.77;72.78;100668.46;111344;1253;21965;-75
2024/03/22 06:01:09;;;;;;;30.70;27.50;;;;;;;9.77;72.32;100666.88;111379;1253;21952;-75
2024/03/22 06:03:37;;;;;;;31.10;27.80;;;;;;;9.76;72.17;100667.09;111353;1253;23025;-77
2024/03/22 06:06:06;;;;;;;28.50;25.80;;;;;;;9.76;71.90;100669.17;111364;1253;23677;-76
2024/03/22 06:08:39;;;;;;;25.90;23.40;;;;;;;9.78;71.70;100664.52;111260;1253;21953;-76
2024/03/22 06:11:08;;;;;;;25.30;22.70;;;;;;;9.78;70.76;100662.94;111321;1253;21965;-77
2024/03/22 06:13:41;;;;;;;24.20;21.90;;;;;;;9.76;70.60;100663.03;111308;1253;21975;-76
2024/03/22 06:16:10;;;;;;;24.90;22.40;;;;;;;9.79;70.42;100661.83;111325;1253;23019;-75
2024/03/22 06:18:40;;;;;;;24.90;22.40;;;;;;;9.81;70.24;100660.63;111335;1253;23611;-74
2024/03/22 06:21:09;;;;;;;24.90;22.40;;;;;;;9.82;69.72;100661.97;111333;1253;21928;-75
2024/03/22 06:23:37;;;;;;;22.50;20.30;;;;;;;9.81;69.75;100660.47;111536;1253;21946;-77
2024/03/22 06:26:06;;;;;;;23.40;21.10;;;;;;;9.81;69.67;100657.48;111395;1253;22341;-75
2024/03/22 06:28:36;;;;;;;24.10;21.80;;;;;;;9.80;69.44;100655.92;111348;1242;21953;-76
2024/03/22 06:31:04;;;;;;;23.20;20.90;;;;;;;9.81;69.36;100659.41;111386;1253;23009;-75
2024/03/22 06:33:34;;;;;;;23.60;21.40;;;;;;;9.82;69.26;100657.77;111354;1253;21975;-74
2024/03/22 06:36:03;;;;;;;26.10;23.70;;;;;;;9.82;69.22;100654.57;111379;1253;21970;-76
2024/03/22 06:38:32;;;;;;;24.40;22.10;;;;;;;9.80;68.98;100655.78;111343;1253;21997;-76
2024/03/22 06:41:01;;;;;;;25.30;22.90;;;;;;;9.78;69.01;100660.98;111376;1253;22027;-75
2024/03/22 06:43:30;;;;;;;24.90;22.50;;;;;;;9.78;69.17;100660.27;111330;1253;23475;-75
2024/03/22 06:45:58;;;;;;;26.60;24.10;;;;;;;9.77;69.00;100658.77;111336;1253;22042;-76
2024/03/22 06:48:27;;;;;;;29.30;26.20;;;;;;;9.76;68.95;100660.58;111328;1253;22075;-75
2024/03/22 06:50:56;;;;;;;27.30;23.70;;;;;;;9.77;68.91;100662.66;111322;1253;23716;-76
2024/03/22 06:53:25;;;;;;;29.00;26.10;;;;;;;9.75;69.00;100660.63;111361;1253;21943;-75
2024/03/22 06:55:54;;;;;;;29.40;26.20;;;;;;;9.74;69.11;100660.55;111297;1253;22245;-75
2024/03/22 06:58:26;;;;;;;;;;;;;;;9.75;69.09;100658.71;111402;1253;21953;-76
2024/03/22 07:00:55;;;;;;;29.00;26.00;;;;;;;9.67;69.31;100660.06;111469;1253;21962;-75
2024/03/22 07:03:23;;;;;;;30.60;27.30;;;;;;;9.68;69.05;100658.11;111458;1253;23011;-76
2024/03/22 07:05:52;;;;;;;30.00;27.00;;;;;;;9.69;69.19;100658.00;111344;1253;22018;-75
2024/03/22 07:08:21;;;;;;;32.00;27.40;;;;;;;9.71;69.06;100657.52;111364;1253;21962;-75
2024/03/22 07:10:54;;;;;;;31.80;28.70;;;;;;;9.72;69.01;100657.85;111290;1253;21996;-75
2024/03/22 07:13:23;;;;;;;32.00;28.70;;;;;;;9.71;69.14;100657.55;111211;1253;22913;-76
2024/03/22 07:15:51;;;;;;;32.00;28.70;;;;;;;9.72;69.35;100659.80;110702;1260;21962;-74
2024/03/22 07:18:20;;;;;;;37.70;33.70;;;;;;;9.72;69.31;100660.52;110667;1260;23670;-75
2024/03/22 07:20:49;;;;;;;36.80;33.10;;;;;;;9.71;69.24;100662.48;110695;1260;23390;-78
2024/03/22 07:23:18;;;;;;;38.00;33.40;;;;;;;9.71;69.31;100655.27;110718;1260;24233;-74
2024/03/22 07:25:48;;;;;;;41.50;37.00;;;;;;;9.73;69.33;100653.23;110678;1260;24437;-75
2024/03/22 07:28:17;;;;;;;38.20;34.30;;;;;;;9.73;69.36;100653.58;110670;1260;22765;-75
2024/03/22 07:30:45;;;;;;;41.50;36.70;;;;;;;9.74;69.28;100651.77;110695;1246;23802;-75
2024/03/22 07:33:16;;;;;;;37.60;33.70;;;;;;;9.76;69.34;100657.59;110755;1253;21953;-75
2024/03/22 07:35:45;;;;;;;39.10;35.10;;;;;;;9.76;69.28;100655.46;111272;1253;22050;-77
2024/03/22 07:38:14;;;;;;;38.00;34.00;;;;;;;9.74;69.47;100648.73;111322;1253;23018;-74
2024/03/22 07:40:43;;;;;;;38.50;34.40;;;;;;;9.78;69.76;100650.41;111330;1253;21964;-76
2024/03/22 07:43:14;;;;;;;40.50;36.40;;;;;;;9.88;69.79;100645.42;111315;1253;22992;-77
2024/03/22 07:45:43;;;;;;;43.10;38.80;;;;;;;9.98;69.85;100644.27;110998;1251;21956;-71
2024/03/22 07:48:12;;;;;;;40.70;36.30;;;;;;;10.09;69.27;100638.84;111070;1253;22014;-72
2024/03/22 07:50:42;;;;;;;41.40;37.40;;;;;;;10.19;69.15;100640.46;111284;1253;22022;-73
2024/03/22 07:53:13;;;;;;;39.00;35.10;;;;;;;10.27;69.00;100641.41;111039;1253;24373;-71
2024/03/22 07:55:42;;;;;;;37.10;33.40;;;;;;;10.31;68.36;100640.25;111089;1252;21977;-69
2024/03/22 07:58:11;;;;;;;37.10;33.40;;;;;;;10.30;68.31;100638.56;110940;1253;22006;-70
2024/03/22 08:00:40;;;;;;;36.70;33.00;;;;;;;10.28;68.22;100640.26;111125;1253;21957;-71
2024/03/22 08:03:16;;;;;;;38.70;34.70;;;;;;;10.27;68.10;100635.38;111066;1253;23774;-70
2024/03/22 08:05:45;;;;;;;36.10;32.50;;;;;;;10.24;68.21;100629.41;111105;1253;21936;-70
2024/03/22 08:08:14;;;;;;;36.70;33.00;;;;;;;10.23;68.11;100629.86;111053;1253;21967;-72
2024/03/22 08:10:43;;;;;;;38.20;34.40;;;;;;;10.23;67.92;100626.00;111387;1253;21967;-70
2024/03/22 08:13:12;;;;;;;37.70;34.00;;;;;;;10.23;68.11;100625.82;111431;1253;21949;-72
2024/03/22 08:15:43;;;;;;;37.20;33.70;;;;;;;10.21;68.07;100623.13;111169;1253;22733;-71
2024/03/22 08:18:13;;;;;;;39.00;35.10;;;;;;;10.20;68.17;100617.73;111058;1253;21510;-73
2024/03/22 08:20:42;;;;;;;35.30;31.80;;;;;;;10.22;68.20;100615.81;111312;1253;21971;-71
2024/03/22 08:23:10;;;;;;;38.20;34.40;;;;;;;10.25;67.88;100614.06;111222;1253;23660;-70
2024/03/22 08:25:39;;;;;;;35.20;32.00;;;;;;;10.26;68.08;100611.36;111015;1253;22267;-72
2024/03/22 08:28:08;;;;;;;32.60;29.50;;;;;;;10.27;68.08;100606.36;111400;1253;21966;-71
2024/03/22 08:30:47;;;;;;;29.90;26.90;;;;;;;10.29;67.73;100605.16;111368;1253;21966;-70
2024/03/22 08:33:18;;;;;;;30.40;27.50;;;;;;;10.30;67.31;100602.11;111062;1253;21958;-70
2024/03/22 08:35:48;;;;;;;29.40;26.70;;;;;;;10.27;66.78;100600.75;110964;1253;22854;-72
2024/03/22 08:38:17;;;;;;;25.30;23.00;;;;;;;10.25;66.88;100596.83;110995;1253;21971;-70
2024/03/22 08:40:50;;;;;;;24.20;21.90;;;;;;;10.28;67.07;100594.00;111096;1240;21964;-71
2024/03/22 08:43:19;;;;;;;25.00;22.70;;;;;;;10.33;66.85;100592.80;111063;1253;21944;-69
2024/03/22 08:45:48;;;;;;;27.50;24.80;;;;;;;10.37;66.88;100586.71;111351;1253;21958;-71
2024/03/22 08:48:17;;;;;;;25.40;22.90;;;;;;;10.37;66.69;100589.50;110792;1258;21968;-71
2024/03/22 08:50:46;;;;;;;25.60;23.20;;;;;;;10.39;66.50;100592.94;111063;1258;23576;-71
2024/03/22 08:53:15;;;;;;;28.40;25.30;;;;;;;10.41;66.36;100591.71;111015;1258;22889;-70
2024/03/22 08:55:47;;;;;;;28.90;26.00;;;;;;;10.45;66.48;100590.20;110944;1258;21969;-71
2024/03/22 08:58:18;;;;;;;25.30;23.00;;;;;;;10.54;66.35;100585.91;111190;1258;23733;-71
2024/03/22 09:00:46;;;;;;;25.00;22.50;;;;;;;10.66;66.03;100586.95;110488;1258;21970;-69
2024/03/22 09:03:15;;;;;;;28.20;25.40;;;;;;;10.75;65.71;100588.80;110772;1258;21968;-69
2024/03/22 09:05:44;;;;;;;27.90;25.20;;;;;;;10.77;65.39;100583.73;110778;1253;23700;-70
2024/03/22 09:08:29;;;;;;;29.30;26.60;;;;;;;10.72;65.03;100579.63;111017;1253;22015;-71
2024/03/22 09:10:58;;;;;;;29.80;27.10;;;;;;;10.70;64.98;100575.75;111119;1253;21975;-71
2024/03/22 09:13:27;;;;;;;28.60;26.00;;;;;;;10.75;64.90;100577.70;111300;1253;24544;-70
2024/03/22 09:15:58;;;;;;;30.20;27.40;;;;;;;10.87;64.79;100580.75;110984;1253;23131;-71
2024/03/22 09:18:27;;;;;;;30.20;27.10;;;;;;;11.01;64.85;100578.77;110991;1253;21964;-70
2024/03/22 09:20:56;;;;;;;27.20;24.80;;;;;;;11.15;64.16;100573.21;111054;1253;21954;-69
2024/03/22 09:23:25;;;;;;;26.20;23.80;;;;;;;11.23;63.54;100576.52;111047;1247;21953;-70
2024/03/22 09:25:54;;;;;;;24.60;22.40;;;;;;;11.29;62.93;100580.16;111034;1253;23017;-70
2024/03/22 09:28:23;;;;;;;23.90;21.80;;;;;;;11.33;62.15;100577.55;111068;1253;23239;-71
2024/03/22 09:30:53;;;;;;;24.20;21.90;;;;;;;11.34;61.10;100576.61;110998;1253;21944;-71
2024/03/22 09:33:26;;;;;;;30.20;27.30;;;;;;;11.32;60.09;100573.27;111135;1253;22916;-71
2024/03/22 09:35:55;;;;;;;28.70;26.00;;;;;;;11.31;59.99;100572.06;111091;1253;21959;-70
2024/03/22 09:38:25;;;;;;;35.70;32.10;;;;;;;11.33;59.99;100569.14;111081;1253;22021;-70
2024/03/22 09:40:54;;;;;;;26.80;24.30;;;;;;;11.40;60.20;100568.80;111064;1253;21953;-69
2024/03/22 09:43:30;;;;;;;24.20;21.90;;;;;;;11.52;60.80;100568.33;111102;1253;23675;-69
2024/03/22 09:46:00;;;;;;;25.40;22.90;;;;;;;11.62;60.17;100561.85;110891;1253;21993;-70
2024/03/22 09:48:29;;;;;;;34.60;30.90;;;;;;;11.72;60.39;100560.55;111044;1253;21953;-71
2024/03/22 09:50:58;;;;;;;36.20;32.30;;;;;;;11.91;59.61;100559.57;111037;1253;22117;-69
2024/03/22 09:53:30;;;;;;;29.60;26.70;;;;;;;12.11;58.98;100562.68;111334;1253;23573;-70
2024/03/22 09:55:59;;;;;;;;;;;;;;;12.32;58.64;100560.08;110907;1253;23757;-70
2024/03/22 09:58:28;;;;;;;27.70;25.00;;;;;;;12.41;57.82;100557.48;111039;1253;23649;-69
2024/03/22 10:01:00;;;;;;;28.70;26.00;;;;;;;12.51;57.71;100552.88;111333;1253;22065;-68
2024/03/22 10:03:29;;;;;;;29.10;26.20;;;;;;;12.60;57.16;100552.35;111194;1252;21955;-72
2024/03/22 10:05:58;;;;;;;27.30;24.80;;;;;;;12.67;56.51;100547.60;111338;1253;21955;-69
2024/03/22 10:08:27;;;;;;;27.30;25.00;;;;;;;12.83;56.14;100543.02;111105;1253;21948;-70
2024/03/22 10:10:57;;;;;;;26.90;24.50;;;;;;;13.06;56.36;100543.38;110968;1253;21964;-69
2024/03/22 10:13:26;;;;;;;27.60;24.70;;;;;;;13.27;56.18;100539.48;111071;1253;21956;-70
2024/03/22 10:15:57;;;;;;;28.70;26.10;;;;;;;13.46;55.85;100547.14;111121;1253;21965;-71
2024/03/22 10:18:26;;;;;;;26.90;24.60;;;;;;;13.64;54.89;100549.10;111435;1253;22750;-70
2024/03/22 10:21:03;;;;;;;26.50;24.10;;;;;;;13.71;54.63;100545.74;111356;1253;21958;-69
2024/03/22 10:23:32;;;;;;;27.30;24.70;;;;;;;13.73;54.20;100546.09;111057;1251;22021;-70
2024/03/22 10:26:01;;;;;;;26.00;23.80;;;;;;;13.66;53.77;100543.67;111039;1253;21976;-70
2024/03/22 10:28:30;;;;;;;27.70;25.10;;;;;;;13.51;53.86;100537.74;111079;1253;21962;-68
2024/03/22 10:30:59;;;;;;;29.00;26.50;;;;;;;13.39;54.13;100534.45;111112;1253;22237;-69
2024/03/22 10:33:29;;;;;;;30.90;28.10;;;;;;;13.34;54.34;100535.23;111060;1253;23602;-70
2024/03/22 10:35:59;;;;;;;30.40;27.60;;;;;;;13.27;54.16;100533.47;111146;1253;21963;-71
2024/03/22 10:38:32;;;;;;;30.60;28.00;;;;;;;13.19;54.54;100530.88;111329;1253;21969;-70
2024/03/22 10:41:02;;;;;;;32.50;29.50;;;;;;;13.16;54.94;100531.64;111150;1253;22741;-70
2024/03/22 10:43:33;;;;;;;28.20;25.60;;;;;;;13.13;54.16;100529.73;111051;1253;21965;-73
2024/03/22 10:46:03;;;;;;;28.80;26.30;;;;;;;12.99;54.05;100522.68;111385;1253;21963;-69
2024/03/22 10:48:33;;;;;;;26.90;24.60;;;;;;;12.93;54.61;100517.52;111451;1253;22177;-70
2024/03/22 10:51:03;;;;;;;29.20;26.70;;;;;;;12.89;54.30;100513.00;112244;1253;21960;-70
2024/03/22 10:53:34;;;;;;;27.30;24.80;;;;;;;12.89;54.35;100510.38;111301;1253;22035;-71
2024/03/22 10:56:06;;;;;;;34.40;31.20;;;;;;;12.91;54.33;100503.70;111373;1253;21961;-70
2024/03/22 10:58:39;;;;;;;30.70;27.90;;;;;;;12.88;54.65;100503.77;111066;1253;21975;-71
2024/03/22 11:01:25;;;;;;;35.30;31.80;;;;;;;12.91;54.73;100501.77;111356;1253;22851;-70
2024/03/22 11:04:09;;;;;;;31.40;28.30;;;;;;;12.95;54.72;100494.89;110964;1240;23011;-70
2024/03/22 11:06:37;;;;;;;30.70;27.90;;;;;;;13.01;54.50;100488.77;111416;1253;21960;-70
2024/03/22 11:09:08;;;;;;;31.10;28.10;;;;;;;13.11;54.48;100483.45;110927;1253;21964;-70
2024/03/22 11:11:37;;;;;;;31.40;28.70;;;;;;;13.23;53.72;100483.38;110949;1253;22733;-70
2024/03/22 11:14:06;;;;;;;30.70;28.00;;;;;;;13.38;53.57;100482.02;111006;1253;21967;-70